createdAt,value
2018-04-22T00:00:05.630Z,92
2018-04-22T00:01:05.495Z,92
2018-04-22T00:02:05.273Z,92
2018-04-22T00:03:05.073Z,92
2018-04-22T00:04:05.525Z,92
2018-04-22T00:05:05.536Z,92
2018-04-22T00:06:05.575Z,92
2018-04-22T00:07:05.273Z,92
2018-04-22T00:08:05.060Z,92
2018-04-22T00:09:05.529Z,92
2018-04-22T00:10:05.121Z,92
2018-04-22T00:11:05.525Z,92
2018-04-22T00:12:05.305Z,92
2018-04-22T00:13:05.255Z,92
2018-04-22T00:14:05.582Z,92
2018-04-22T00:15:05.552Z,92
2018-04-22T00:16:05.596Z,92
2018-04-22T00:17:05.111Z,92
2018-04-22T00:18:05.060Z,92
2018-04-22T00:19:05.265Z,92
2018-04-22T00:20:05.532Z,92
2018-04-22T00:21:05.062Z,92
2018-04-22T00:22:05.526Z,92
2018-04-22T00:23:05.111Z,92
2018-04-22T00:24:05.556Z,93
2018-04-22T00:25:05.136Z,93
2018-04-22T00:26:05.568Z,93
2018-04-22T00:27:05.127Z,93
2018-04-22T00:28:05.548Z,93
2018-04-22T00:29:05.134Z,93
2018-04-22T00:30:05.194Z,93
2018-04-22T00:31:05.109Z,93
2018-04-22T00:32:05.563Z,93
2018-04-22T00:33:05.599Z,93
2018-04-22T00:34:05.340Z,93
2018-04-22T00:35:05.634Z,93
2018-04-22T00:36:05.652Z,93
2018-04-22T00:37:05.276Z,93
2018-04-22T00:38:05.171Z,93
2018-04-22T00:39:05.195Z,93
2018-04-22T00:40:05.629Z,93
2018-04-22T00:41:05.565Z,93
2018-04-22T00:42:05.414Z,93
2018-04-22T00:43:05.699Z,93
2018-04-22T00:44:05.178Z,93
2018-04-22T00:45:05.155Z,93
2018-04-22T00:46:05.354Z,93
2018-04-22T00:47:05.624Z,93
2018-04-22T00:48:05.157Z,93
2018-04-22T00:49:05.650Z,93
2018-04-22T00:50:05.610Z,93
2018-04-22T00:51:05.691Z,93
2018-04-22T00:52:05.181Z,93
2018-04-22T00:53:05.626Z,93
2018-04-22T00:54:05.335Z,93
2018-04-22T00:55:05.663Z,93
2018-04-22T00:56:05.366Z,93
2018-04-22T00:57:05.335Z,93
2018-04-22T00:58:05.406Z,93
2018-04-22T00:59:05.647Z,93
2018-04-22T01:00:05.676Z,93
2018-04-22T01:01:05.558Z,93
2018-04-22T01:02:05.668Z,94
2018-04-22T01:03:05.623Z,94
2018-04-22T01:04:05.334Z,94
2018-04-22T01:05:05.449Z,94
2018-04-22T01:06:05.715Z,94
2018-04-22T01:07:05.216Z,94
2018-04-22T01:08:05.189Z,94
2018-04-22T01:09:05.697Z,94
2018-04-22T01:10:05.656Z,94
2018-04-22T01:11:05.217Z,94
2018-04-22T01:12:05.615Z,94
2018-04-22T01:13:05.628Z,94
2018-04-22T01:14:05.227Z,94
2018-04-22T01:15:05.655Z,94
2018-04-22T01:16:05.624Z,94
2018-04-22T01:17:05.259Z,94
2018-04-22T01:18:05.262Z,94
2018-04-22T01:19:05.209Z,94
2018-04-22T01:20:05.238Z,94
2018-04-22T01:21:05.682Z,94
2018-04-22T01:22:05.647Z,94
2018-04-22T01:23:05.710Z,94
2018-04-22T01:24:05.402Z,94
2018-04-22T01:25:05.784Z,94
2018-04-22T01:26:05.715Z,94
2018-04-22T01:27:05.715Z,94
2018-04-22T01:28:05.718Z,94
2018-04-22T01:29:05.410Z,94
2018-04-22T01:30:05.700Z,94
2018-04-22T01:31:05.365Z,94
2018-04-22T01:32:05.464Z,94
2018-04-22T01:33:05.412Z,95
2018-04-22T01:34:05.399Z,95
2018-04-22T01:35:05.686Z,95
2018-04-22T01:36:05.276Z,95
2018-04-22T01:37:05.463Z,95
2018-04-22T01:38:05.708Z,95
2018-04-22T01:39:05.673Z,95
2018-04-22T01:40:05.749Z,95
2018-04-22T01:41:05.668Z,95
2018-04-22T01:42:05.252Z,95
2018-04-22T01:43:05.745Z,95
2018-04-22T01:44:05.295Z,95
2018-04-22T01:45:05.697Z,95
2018-04-22T01:46:05.711Z,95
2018-04-22T01:47:05.475Z,95
2018-04-22T01:48:05.688Z,95
2018-04-22T01:49:05.326Z,95
2018-04-22T01:50:05.731Z,95
2018-04-22T01:51:05.740Z,95
2018-04-22T01:52:05.498Z,95
2018-04-22T01:53:05.286Z,95
2018-04-22T01:54:05.705Z,95
2018-04-22T01:55:05.749Z,95
2018-04-22T01:56:05.804Z,95
2018-04-22T01:57:05.302Z,95
2018-04-22T01:58:05.715Z,95
2018-04-22T01:59:05.444Z,95
2018-04-22T02:00:05.776Z,95
2018-04-22T02:01:05.776Z,95
2018-04-22T02:02:05.822Z,95
2018-04-22T02:03:05.502Z,95
2018-04-22T02:04:05.681Z,95
2018-04-22T02:05:05.405Z,95
2018-04-22T02:06:05.496Z,95
2018-04-22T02:07:05.329Z,95
2018-04-22T02:08:05.819Z,95
2018-04-22T02:09:05.282Z,95
2018-04-22T02:10:05.350Z,95
2018-04-22T02:11:05.394Z,95
2018-04-22T02:12:05.579Z,95
2018-04-22T02:13:05.838Z,95
2018-04-22T02:14:05.554Z,95
2018-04-22T02:15:05.771Z,95
2018-04-22T02:16:05.831Z,95
2018-04-22T02:17:05.389Z,95
2018-04-22T02:18:05.779Z,95
2018-04-22T02:19:05.510Z,95
2018-04-22T02:20:05.782Z,95
2018-04-22T02:21:05.821Z,95
2018-04-22T02:22:05.535Z,95
2018-04-22T02:23:05.855Z,95
2018-04-22T02:24:05.780Z,95
2018-04-22T02:25:05.411Z,95
2018-04-22T02:26:05.746Z,95
2018-04-22T02:27:05.392Z,95
2018-04-22T02:28:05.363Z,95
2018-04-22T02:29:05.550Z,95
2018-04-22T02:30:05.898Z,95
2018-04-22T02:31:05.584Z,95
2018-04-22T02:32:05.368Z,95
2018-04-22T02:33:05.580Z,95
2018-04-22T02:34:05.423Z,95
2018-04-22T02:35:05.670Z,95
2018-04-22T02:36:05.583Z,95
2018-04-22T02:37:05.521Z,95
2018-04-22T02:38:05.859Z,95
2018-04-22T02:39:05.397Z,95
2018-04-22T02:40:05.843Z,95
2018-04-22T02:41:05.816Z,95
2018-04-22T02:42:05.899Z,95
2018-04-22T02:43:05.885Z,95
2018-04-22T02:44:05.457Z,95
2018-04-22T02:45:05.900Z,95
2018-04-22T02:46:05.631Z,95
2018-04-22T02:47:05.895Z,95
2018-04-22T02:48:05.897Z,95
2018-04-22T02:49:05.590Z,95
2018-04-22T02:50:05.828Z,95
2018-04-22T02:51:05.919Z,95
2018-04-22T02:52:05.411Z,95
2018-04-22T02:53:05.408Z,95
2018-04-22T02:54:05.905Z,96
2018-04-22T02:55:05.487Z,96
2018-04-22T02:56:05.835Z,96
2018-04-22T02:57:05.886Z,96
2018-04-22T02:58:05.653Z,96
2018-04-22T02:59:05.427Z,96
2018-04-22T03:00:05.664Z,96
2018-04-22T03:01:05.418Z,96
2018-04-22T03:02:05.420Z,96
2018-04-22T03:03:05.569Z,96
2018-04-22T03:04:05.630Z,96
2018-04-22T03:05:05.441Z,96
2018-04-22T03:06:05.912Z,96
2018-04-22T03:07:05.630Z,96
2018-04-22T03:08:05.939Z,96
2018-04-22T03:09:05.452Z,96
2018-04-22T03:10:05.822Z,96
2018-04-22T03:11:05.605Z,96
2018-04-22T03:12:05.618Z,96
2018-04-22T03:13:05.923Z,96
2018-04-22T03:14:05.818Z,96
2018-04-22T03:15:05.702Z,96
2018-04-22T03:16:05.501Z,96
2018-04-22T03:17:05.902Z,96
2018-04-22T03:18:05.901Z,96
2018-04-22T03:19:05.647Z,96
2018-04-22T03:20:05.637Z,96
2018-04-22T03:21:05.845Z,96
2018-04-22T03:22:05.629Z,96
2018-04-22T03:23:05.900Z,96
2018-04-22T03:24:05.887Z,96
2018-04-22T03:25:05.916Z,96
2018-04-22T03:26:05.518Z,96
2018-04-22T03:27:05.496Z,96
2018-04-22T03:28:05.677Z,96
2018-04-22T03:29:05.635Z,96
2018-04-22T03:30:05.959Z,96
2018-04-22T03:31:06.023Z,96
2018-04-22T03:32:05.688Z,96
2018-04-22T03:33:05.684Z,96
2018-04-22T03:34:05.956Z,96
2018-04-22T03:35:05.543Z,96
2018-04-22T03:36:05.966Z,96
2018-04-22T03:37:05.927Z,96
2018-04-22T03:38:05.982Z,96
2018-04-22T03:39:05.953Z,96
2018-04-22T03:40:05.683Z,96
2018-04-22T03:41:05.923Z,96
2018-04-22T03:42:05.962Z,96
2018-04-22T03:43:05.965Z,96
2018-04-22T03:44:06.021Z,96
2018-04-22T03:45:05.914Z,96
2018-04-22T03:46:05.539Z,96
2018-04-22T03:47:05.957Z,96
2018-04-22T03:48:05.971Z,96
2018-04-22T03:49:05.590Z,96
2018-04-22T03:50:05.904Z,96
2018-04-22T03:51:05.982Z,96
2018-04-22T03:52:05.522Z,96
2018-04-22T03:53:05.727Z,96
2018-04-22T03:54:05.949Z,96
2018-04-22T03:55:05.575Z,96
2018-04-22T03:56:05.966Z,96
2018-04-22T03:57:05.932Z,96
2018-04-22T03:58:06.028Z,96
2018-04-22T03:59:05.598Z,96
2018-04-22T04:00:05.517Z,96
2018-04-22T04:01:05.525Z,96
2018-04-22T04:02:05.672Z,96
2018-04-22T04:03:05.527Z,96
2018-04-22T04:04:05.989Z,96
2018-04-22T04:05:06.024Z,96
2018-04-22T04:06:05.993Z,96
2018-04-22T04:07:05.622Z,96
2018-04-22T04:08:05.566Z,96
2018-04-22T04:09:06.032Z,96
2018-04-22T04:10:06.109Z,96
2018-04-22T04:11:05.764Z,96
2018-04-22T04:12:05.913Z,96
2018-04-22T04:13:05.609Z,96
2018-04-22T04:14:05.976Z,96
2018-04-22T04:15:06.040Z,96
2018-04-22T04:16:06.026Z,96
2018-04-22T04:17:06.800Z,96
2018-04-22T04:18:05.642Z,96
2018-04-22T04:19:05.783Z,96
2018-04-22T04:20:06.023Z,96
2018-04-22T04:21:05.573Z,96
2018-04-22T04:22:05.719Z,96
2018-04-22T04:23:05.933Z,96
2018-04-22T04:24:06.012Z,96
2018-04-22T04:25:05.622Z,96
2018-04-22T04:26:05.994Z,96
2018-04-22T04:27:05.773Z,96
2018-04-22T04:28:05.582Z,96
2018-04-22T04:29:05.716Z,96
2018-04-22T04:30:06.111Z,96
2018-04-22T04:31:05.615Z,96
2018-04-22T04:32:05.999Z,96
2018-04-22T04:33:05.812Z,96
2018-04-22T04:34:06.026Z,96
2018-04-22T04:35:05.808Z,96
2018-04-22T04:36:06.124Z,96
2018-04-22T04:37:06.041Z,96
2018-04-22T04:38:05.643Z,96
2018-04-22T04:39:05.614Z,96
2018-04-22T04:40:06.094Z,96
2018-04-22T04:41:06.067Z,96
2018-04-22T04:42:05.648Z,96
2018-04-22T04:43:06.073Z,96
2018-04-22T04:44:06.020Z,96
2018-04-22T04:45:06.122Z,96
2018-04-22T04:46:05.784Z,96
2018-04-22T04:47:06.172Z,96
2018-04-22T04:48:05.665Z,96
2018-04-22T04:49:06.090Z,96
2018-04-22T04:50:06.271Z,96
2018-04-22T04:51:06.047Z,96
2018-04-22T04:52:06.019Z,96
2018-04-22T04:53:05.836Z,96
2018-04-22T04:54:05.863Z,96
2018-04-22T04:55:06.064Z,96
2018-04-22T04:56:05.848Z,96
2018-04-22T04:57:06.008Z,96
2018-04-22T04:58:05.619Z,96
2018-04-22T04:59:06.137Z,96
2018-04-22T05:00:05.718Z,96
2018-04-22T05:01:06.120Z,96
2018-04-22T05:02:05.727Z,96
2018-04-22T05:03:06.105Z,96
2018-04-22T05:04:06.080Z,96
2018-04-22T05:05:06.145Z,96
2018-04-22T05:06:06.074Z,96
2018-04-22T05:07:05.705Z,96
2018-04-22T05:08:06.613Z,96
2018-04-22T05:09:06.072Z,96
2018-04-22T05:10:06.180Z,96
2018-04-22T05:11:05.670Z,96
2018-04-22T05:12:06.105Z,96
2018-04-22T05:13:05.676Z,96
2018-04-22T05:14:05.679Z,96
2018-04-22T05:15:05.878Z,96
2018-04-22T05:16:05.708Z,96
2018-04-22T05:17:05.769Z,96
2018-04-22T05:18:06.114Z,96
2018-04-22T05:19:05.889Z,96
2018-04-22T05:20:05.923Z,96
2018-04-22T05:21:05.725Z,96
2018-04-22T05:22:06.167Z,96
2018-04-22T05:23:05.672Z,96
2018-04-22T05:24:06.138Z,96
2018-04-22T05:25:05.874Z,96
2018-04-22T05:26:06.153Z,96
2018-04-22T05:27:06.064Z,96
2018-04-22T05:28:06.135Z,96
2018-04-22T05:29:06.159Z,96
2018-04-22T05:30:06.145Z,96
2018-04-22T05:31:05.896Z,96
2018-04-22T05:32:05.939Z,96
2018-04-22T05:33:06.234Z,96
2018-04-22T05:34:05.766Z,96
2018-04-22T05:35:05.725Z,96
2018-04-22T05:36:05.785Z,96
2018-04-22T05:37:06.145Z,96
2018-04-22T05:38:06.172Z,96
2018-04-22T05:39:05.721Z,96
2018-04-22T05:40:06.111Z,96
2018-04-22T05:41:06.124Z,96
2018-04-22T05:42:05.917Z,96
2018-04-22T05:43:05.713Z,96
2018-04-22T05:44:06.511Z,96
2018-04-22T05:45:06.193Z,96
2018-04-22T05:46:06.174Z,96
2018-04-22T05:47:05.923Z,96
2018-04-22T05:48:05.867Z,96
2018-04-22T05:49:06.189Z,96
2018-04-22T05:50:05.730Z,96
2018-04-22T05:51:06.202Z,96
2018-04-22T05:52:05.727Z,95
2018-04-22T05:53:06.197Z,95
2018-04-22T05:54:06.177Z,95
2018-04-22T05:55:05.891Z,95
2018-04-22T05:56:05.760Z,95
2018-04-22T05:57:05.914Z,95
2018-04-22T05:58:06.169Z,95
2018-04-22T05:59:06.186Z,95
2018-04-22T06:00:05.794Z,94
2018-04-22T06:01:06.256Z,94
2018-04-22T06:02:06.204Z,95
2018-04-22T06:03:05.796Z,95
2018-04-22T06:04:06.047Z,95
2018-04-22T06:05:06.252Z,94
2018-04-22T06:06:06.263Z,94
2018-04-22T06:07:06.168Z,93
2018-04-22T06:08:06.125Z,93
2018-04-22T06:09:05.928Z,93
2018-04-22T06:10:06.246Z,92
2018-04-22T06:11:05.797Z,92
2018-04-22T06:12:05.907Z,92
2018-04-22T06:13:06.205Z,92
2018-04-22T06:14:06.196Z,92
2018-04-22T06:15:05.780Z,90
2018-04-22T06:16:06.276Z,90
2018-04-22T06:17:05.972Z,88
2018-04-22T06:18:06.167Z,88
2018-04-22T06:19:06.255Z,88
2018-04-22T06:20:05.773Z,87
2018-04-22T06:21:06.186Z,87
2018-04-22T06:22:05.792Z,86
2018-04-22T06:23:05.961Z,86
2018-04-22T06:24:06.279Z,86
2018-04-22T06:25:05.950Z,84
2018-04-22T06:26:05.777Z,84
2018-04-22T06:27:05.974Z,83
2018-04-22T06:28:05.971Z,83
2018-04-22T06:29:05.780Z,83
2018-04-22T06:30:05.822Z,81
2018-04-22T06:31:05.793Z,81
2018-04-22T06:32:05.818Z,81
2018-04-22T06:33:05.961Z,81
2018-04-22T06:34:05.823Z,81
2018-04-22T06:35:05.799Z,80
2018-04-22T06:36:06.246Z,80
2018-04-22T06:37:06.279Z,80
2018-04-22T06:38:06.267Z,80
2018-04-22T06:39:06.278Z,80
2018-04-22T06:40:05.832Z,80
2018-04-22T06:41:06.233Z,80
2018-04-22T06:42:06.029Z,80
2018-04-22T06:43:05.953Z,77
2018-04-22T06:44:06.276Z,77
2018-04-22T06:45:06.346Z,76
2018-04-22T06:46:06.368Z,76
2018-04-22T06:47:06.334Z,76
2018-04-22T06:48:06.059Z,74
2018-04-22T06:49:06.248Z,74
2018-04-22T06:50:06.288Z,74
2018-04-22T06:51:06.382Z,74
2018-04-22T06:52:06.297Z,74
2018-04-22T06:53:06.092Z,74
2018-04-22T06:54:06.407Z,74
2018-04-22T06:55:06.117Z,72
2018-04-22T06:56:05.839Z,72
2018-04-22T06:57:06.771Z,72
2018-04-22T06:58:05.843Z,71
2018-04-22T06:59:06.336Z,71
2018-04-22T07:00:06.127Z,71
2018-04-22T07:01:06.369Z,70
2018-04-22T07:02:06.064Z,70
2018-04-22T07:03:06.347Z,71
2018-04-22T07:04:06.338Z,71
2018-04-22T07:05:06.322Z,71
2018-04-22T07:06:05.864Z,69
2018-04-22T07:07:06.345Z,69
2018-04-22T07:08:06.070Z,70
2018-04-22T07:09:05.857Z,70
2018-04-22T07:10:06.369Z,70
2018-04-22T07:11:06.359Z,69
2018-04-22T07:12:05.874Z,69
2018-04-22T07:13:06.080Z,71
2018-04-22T07:14:06.035Z,71
2018-04-22T07:15:06.061Z,71
2018-04-22T07:16:06.377Z,70
2018-04-22T07:17:05.950Z,70
2018-04-22T07:18:06.330Z,69
2018-04-22T07:19:06.322Z,69
2018-04-22T07:20:06.140Z,69
2018-04-22T07:21:05.910Z,66
2018-04-22T07:22:05.905Z,66
2018-04-22T07:23:05.939Z,66
2018-04-22T07:24:06.143Z,66
2018-04-22T07:25:06.369Z,66
2018-04-22T07:26:06.326Z,64
2018-04-22T07:27:05.900Z,64
2018-04-22T07:28:06.367Z,64
2018-04-22T07:29:06.394Z,64
2018-04-22T07:30:06.141Z,64
2018-04-22T07:31:05.929Z,63
2018-04-22T07:32:05.990Z,63
2018-04-22T07:33:06.092Z,63
2018-04-22T07:34:06.220Z,63
2018-04-22T07:35:06.388Z,63
2018-04-22T07:36:06.068Z,62
2018-04-22T07:37:06.426Z,62
2018-04-22T07:38:06.411Z,62
2018-04-22T07:39:06.356Z,61
2018-04-22T07:40:05.980Z,61
2018-04-22T07:41:05.931Z,61
2018-04-22T07:42:06.108Z,61
2018-04-22T07:43:06.084Z,61
2018-04-22T07:44:06.121Z,61
2018-04-22T07:45:06.447Z,61
2018-04-22T07:46:06.324Z,60
2018-04-22T07:47:06.129Z,60
2018-04-22T07:48:06.094Z,60
2018-04-22T07:49:06.347Z,59
2018-04-22T07:50:06.115Z,59
2018-04-22T07:51:06.400Z,59
2018-04-22T07:52:06.385Z,59
2018-04-22T07:53:05.927Z,59
2018-04-22T07:54:06.396Z,59
2018-04-22T07:55:06.349Z,59
2018-04-22T07:56:06.393Z,59
2018-04-22T07:57:06.421Z,59
2018-04-22T07:58:06.401Z,59
2018-04-22T07:59:06.388Z,59
2018-04-22T08:00:06.160Z,59
2018-04-22T08:01:06.392Z,59
2018-04-22T08:02:06.115Z,59
2018-04-22T08:03:05.946Z,59
2018-04-22T08:04:06.139Z,57
2018-04-22T08:05:06.443Z,57
2018-04-22T08:06:06.136Z,57
2018-04-22T08:07:06.031Z,57
2018-04-22T08:08:06.461Z,57
2018-04-22T08:09:06.418Z,56
2018-04-22T08:10:06.481Z,56
2018-04-22T08:11:06.142Z,56
2018-04-22T08:12:06.456Z,57
2018-04-22T08:13:06.402Z,57
2018-04-22T08:14:06.160Z,57
2018-04-22T08:15:06.158Z,57
2018-04-22T08:16:06.480Z,57
2018-04-22T08:17:06.151Z,57
2018-04-22T08:18:06.013Z,57
2018-04-22T08:19:06.165Z,56
2018-04-22T08:20:06.431Z,56
2018-04-22T08:21:06.037Z,56
2018-04-22T08:22:06.451Z,57
2018-04-22T08:23:06.076Z,57
2018-04-22T08:24:06.031Z,54
2018-04-22T08:25:06.038Z,54
2018-04-22T08:26:06.208Z,54
2018-04-22T08:27:06.449Z,58
2018-04-22T08:28:06.524Z,58
2018-04-22T08:29:06.521Z,57
2018-04-22T08:30:06.455Z,57
2018-04-22T08:31:06.490Z,57
2018-04-22T08:32:06.450Z,57
2018-04-22T08:33:06.502Z,57
2018-04-22T08:34:06.525Z,57
2018-04-22T08:35:06.882Z,58
2018-04-22T08:36:06.216Z,58
2018-04-22T08:37:06.421Z,57
2018-04-22T08:38:06.511Z,57
2018-04-22T08:39:06.483Z,57
2018-04-22T08:40:06.479Z,59
2018-04-22T08:41:06.536Z,59
2018-04-22T08:42:06.474Z,55
2018-04-22T08:43:06.064Z,55
2018-04-22T08:44:06.507Z,55
2018-04-22T08:45:06.506Z,55
2018-04-22T08:46:06.088Z,55
2018-04-22T08:47:06.070Z,54
2018-04-22T08:48:06.548Z,54
2018-04-22T08:49:06.224Z,54
2018-04-22T08:50:06.070Z,54
2018-04-22T08:51:06.867Z,54
2018-04-22T08:52:06.115Z,53
2018-04-22T08:53:06.067Z,53
2018-04-22T08:54:06.258Z,53
2018-04-22T08:55:06.064Z,53
2018-04-22T08:56:06.029Z,53
2018-04-22T08:57:06.260Z,51
2018-04-22T08:58:06.238Z,51
2018-04-22T08:59:06.530Z,51
2018-04-22T09:00:06.580Z,53
2018-04-22T09:01:06.471Z,53
2018-04-22T09:02:06.316Z,53
2018-04-22T09:03:06.578Z,52
2018-04-22T09:04:06.501Z,52
2018-04-22T09:05:06.522Z,52
2018-04-22T09:06:06.297Z,52
2018-04-22T09:07:06.504Z,52
2018-04-22T09:08:06.248Z,50
2018-04-22T09:09:06.509Z,50
2018-04-22T09:10:06.139Z,52
2018-04-22T09:11:06.511Z,52
2018-04-22T09:12:06.087Z,52
2018-04-22T09:13:06.068Z,57
2018-04-22T09:14:06.592Z,57
2018-04-22T09:15:06.565Z,52
2018-04-22T09:16:06.136Z,52
2018-04-22T09:17:06.281Z,52
2018-04-22T09:18:06.080Z,51
2018-04-22T09:19:06.533Z,51
2018-04-22T09:20:06.331Z,50
2018-04-22T09:21:06.297Z,50
2018-04-22T09:22:06.296Z,50
2018-04-22T09:23:06.516Z,50
2018-04-22T09:24:06.142Z,50
2018-04-22T09:25:06.549Z,52
2018-04-22T09:26:06.120Z,52
2018-04-22T09:27:06.118Z,52
2018-04-22T09:28:06.597Z,52
2018-04-22T09:29:06.585Z,52
2018-04-22T09:30:08.653Z,50
2018-04-22T09:31:06.151Z,50
2018-04-22T09:32:06.549Z,50
2018-04-22T09:33:06.137Z,50
2018-04-22T09:34:06.117Z,50
2018-04-22T09:35:06.179Z,50
2018-04-22T09:36:06.978Z,50
2018-04-22T09:37:06.582Z,50
2018-04-22T09:38:06.338Z,50
2018-04-22T09:39:06.323Z,50
2018-04-22T09:40:06.360Z,50
2018-04-22T09:41:06.346Z,53
2018-04-22T09:42:06.320Z,53
2018-04-22T09:43:06.214Z,50
2018-04-22T09:44:06.175Z,50
2018-04-22T09:45:07.295Z,50
2018-04-22T09:46:06.550Z,50
2018-04-22T09:47:06.366Z,50
2018-04-22T09:48:06.353Z,50
2018-04-22T09:49:06.343Z,50
2018-04-22T09:50:06.243Z,50
2018-04-22T09:51:06.312Z,50
2018-04-22T09:52:06.758Z,50
2018-04-22T09:53:06.220Z,49
2018-04-22T09:54:06.171Z,49
2018-04-22T09:55:06.594Z,49
2018-04-22T09:56:06.398Z,49
2018-04-22T09:57:06.175Z,49
2018-04-22T09:58:06.634Z,48
2018-04-22T09:59:06.192Z,48
2018-04-22T10:00:06.416Z,48
2018-04-22T10:01:06.328Z,48
2018-04-22T10:02:06.655Z,48
2018-04-22T10:03:06.644Z,48
2018-04-22T10:04:06.375Z,50
2018-04-22T10:05:06.620Z,50
2018-04-22T10:06:06.651Z,47
2018-04-22T10:07:06.685Z,47
2018-04-22T10:08:06.611Z,47
2018-04-22T10:09:06.385Z,48
2018-04-22T10:10:06.665Z,48
2018-04-22T10:11:06.227Z,48
2018-04-22T10:12:06.207Z,48
2018-04-22T10:13:06.216Z,48
2018-04-22T10:14:06.324Z,51
2018-04-22T10:15:06.724Z,51
2018-04-22T10:16:06.657Z,51
2018-04-22T10:17:06.668Z,51
2018-04-22T10:18:06.675Z,51
2018-04-22T10:19:06.433Z,50
2018-04-22T10:20:06.686Z,50
2018-04-22T10:21:06.283Z,51
2018-04-22T10:22:06.468Z,51
2018-04-22T10:23:06.734Z,51
2018-04-22T10:24:06.676Z,50
2018-04-22T10:25:06.411Z,50
2018-04-22T10:26:06.640Z,47
2018-04-22T10:27:06.684Z,47
2018-04-22T10:28:06.716Z,47
2018-04-22T10:29:06.256Z,50
2018-04-22T10:30:06.723Z,50
2018-04-22T10:31:06.678Z,48
2018-04-22T10:32:06.733Z,48
2018-04-22T10:33:06.685Z,48
2018-04-22T10:34:06.280Z,52
2018-04-22T10:35:06.433Z,52
2018-04-22T10:36:06.459Z,52
2018-04-22T10:37:07.232Z,51
2018-04-22T10:38:06.410Z,51
2018-04-22T10:39:06.405Z,48
2018-04-22T10:40:06.576Z,48
2018-04-22T10:41:06.677Z,48
2018-04-22T10:42:06.297Z,49
2018-04-22T10:43:06.771Z,49
2018-04-22T10:44:06.698Z,50
2018-04-22T10:45:06.745Z,50
2018-04-22T10:46:06.708Z,50
2018-04-22T10:47:06.705Z,47
2018-04-22T10:48:06.293Z,47
2018-04-22T10:49:06.271Z,48
2018-04-22T10:50:06.288Z,48
2018-04-22T10:51:06.431Z,48
2018-04-22T10:52:06.714Z,52
2018-04-22T10:53:06.693Z,52
2018-04-22T10:54:06.459Z,49
2018-04-22T10:55:06.288Z,49
2018-04-22T10:56:06.747Z,49
2018-04-22T10:57:06.500Z,49
2018-04-22T10:58:06.783Z,49
2018-04-22T10:59:06.774Z,49
2018-04-22T11:00:06.318Z,49
2018-04-22T11:01:06.723Z,49
2018-04-22T11:02:06.847Z,49
2018-04-22T11:03:06.461Z,49
2018-04-22T11:04:06.470Z,49
2018-04-22T11:05:06.377Z,51
2018-04-22T11:06:06.263Z,51
2018-04-22T11:07:06.323Z,52
2018-04-22T11:08:06.672Z,52
2018-04-22T11:09:06.814Z,52
2018-04-22T11:10:06.369Z,51
2018-04-22T11:11:06.713Z,51
2018-04-22T11:12:06.716Z,51
2018-04-22T11:13:06.737Z,51
2018-04-22T11:14:06.740Z,51
2018-04-22T11:15:06.747Z,49
2018-04-22T11:16:06.804Z,49
2018-04-22T11:17:06.363Z,49
2018-04-22T11:18:06.458Z,49
2018-04-22T11:19:06.316Z,49
2018-04-22T11:20:06.852Z,50
2018-04-22T11:21:06.790Z,50
2018-04-22T11:22:06.441Z,52
2018-04-22T11:23:06.751Z,52
2018-04-22T11:24:06.490Z,52
2018-04-22T11:25:06.759Z,49
2018-04-22T11:26:06.525Z,49
2018-04-22T11:27:06.497Z,51
2018-04-22T11:28:06.548Z,51
2018-04-22T11:29:06.330Z,51
2018-04-22T11:30:06.553Z,51
2018-04-22T11:31:06.812Z,51
2018-04-22T11:32:06.770Z,51
2018-04-22T11:33:06.788Z,51
2018-04-22T11:34:06.794Z,51
2018-04-22T11:35:06.376Z,51
2018-04-22T11:36:06.832Z,51
2018-04-22T11:37:06.761Z,51
2018-04-22T11:38:07.436Z,51
2018-04-22T11:39:06.762Z,51
2018-04-22T11:40:06.531Z,51
2018-04-22T11:41:06.851Z,51
2018-04-22T11:42:06.802Z,51
2018-04-22T11:43:06.500Z,49
2018-04-22T11:44:06.541Z,49
2018-04-22T11:45:06.813Z,51
2018-04-22T11:46:06.969Z,51
2018-04-22T11:47:06.340Z,51
2018-04-22T11:48:06.377Z,49
2018-04-22T11:49:06.792Z,49
2018-04-22T11:50:06.594Z,51
2018-04-22T11:51:06.790Z,51
2018-04-22T11:52:06.786Z,51
2018-04-22T11:53:06.570Z,50
2018-04-22T11:54:06.552Z,50
2018-04-22T11:55:06.851Z,48
2018-04-22T11:56:06.540Z,48
2018-04-22T11:57:06.855Z,48
2018-04-22T11:58:06.823Z,49
2018-04-22T11:59:06.375Z,49
2018-04-22T12:00:06.548Z,48
2018-04-22T12:01:06.383Z,48
2018-04-22T12:02:06.562Z,48
2018-04-22T12:03:06.851Z,49
2018-04-22T12:04:06.811Z,49
2018-04-22T12:05:06.597Z,49
2018-04-22T12:06:06.860Z,46
2018-04-22T12:07:06.382Z,46
2018-04-22T12:08:06.870Z,47
2018-04-22T12:09:06.444Z,47
2018-04-22T12:10:06.874Z,47
2018-04-22T12:11:06.840Z,47
2018-04-22T12:12:06.623Z,47
2018-04-22T12:13:06.841Z,44
2018-04-22T12:14:06.607Z,44
2018-04-22T12:15:06.622Z,44
2018-04-22T12:16:06.574Z,46
2018-04-22T12:17:06.558Z,46
2018-04-22T12:18:06.926Z,46
2018-04-22T12:19:06.817Z,46
2018-04-22T12:20:06.485Z,46
2018-04-22T12:21:06.871Z,49
2018-04-22T12:22:06.917Z,49
2018-04-22T12:23:06.936Z,46
2018-04-22T12:24:06.902Z,46
2018-04-22T12:25:06.956Z,46
2018-04-22T12:26:06.655Z,47
2018-04-22T12:27:06.663Z,47
2018-04-22T12:28:06.907Z,46
2018-04-22T12:29:06.621Z,46
2018-04-22T12:30:06.691Z,46
2018-04-22T12:31:06.868Z,46
2018-04-22T12:32:06.911Z,46
2018-04-22T12:33:06.618Z,46
2018-04-22T12:34:06.527Z,46
2018-04-22T12:35:06.863Z,46
2018-04-22T12:36:06.884Z,45
2018-04-22T12:37:06.913Z,45
2018-04-22T12:38:06.945Z,45
2018-04-22T12:39:07.886Z,47
2018-04-22T12:40:11.306Z,47
2018-04-22T12:41:06.893Z,44
2018-04-22T12:42:06.468Z,44
2018-04-22T12:43:06.532Z,44
2018-04-22T12:44:06.941Z,43
2018-04-22T12:45:06.698Z,43
2018-04-22T12:46:07.062Z,47
2018-04-22T12:47:06.918Z,47
2018-04-22T12:48:06.501Z,47
2018-04-22T12:49:06.924Z,47
2018-04-22T12:50:06.946Z,47
2018-04-22T12:51:06.533Z,42
2018-04-22T12:52:06.498Z,42
2018-04-22T12:53:06.517Z,42
2018-04-22T12:54:06.492Z,43
2018-04-22T12:55:06.492Z,43
2018-04-22T12:56:06.613Z,47
2018-04-22T12:57:06.493Z,47
2018-04-22T12:58:06.974Z,47
2018-04-22T12:59:06.538Z,47
2018-04-22T13:00:07.048Z,47
2018-04-22T13:01:06.694Z,44
2018-04-22T13:02:06.713Z,44
2018-04-22T13:03:06.935Z,44
2018-04-22T13:04:06.514Z,45
2018-04-22T13:05:06.931Z,45
2018-04-22T13:06:07.018Z,45
2018-04-22T13:07:06.935Z,43
2018-04-22T13:08:06.686Z,43
2018-04-22T13:09:06.980Z,42
2018-04-22T13:10:07.014Z,42
2018-04-22T13:11:07.075Z,42
2018-04-22T13:12:06.665Z,43
2018-04-22T13:13:07.010Z,43
2018-04-22T13:14:07.093Z,43
2018-04-22T13:15:06.701Z,43
2018-04-22T13:16:06.553Z,43
2018-04-22T13:17:06.713Z,43
2018-04-22T13:18:06.972Z,43
2018-04-22T13:19:07.003Z,42
2018-04-22T13:20:06.678Z,42
2018-04-22T13:21:07.305Z,42
2018-04-22T13:22:06.576Z,43
2018-04-22T13:23:06.847Z,43
2018-04-22T13:24:06.748Z,43
2018-04-22T13:25:06.551Z,43
2018-04-22T13:26:07.079Z,43
2018-04-22T13:27:07.007Z,43
2018-04-22T13:28:06.764Z,43
2018-04-22T13:29:06.997Z,40
2018-04-22T13:30:06.575Z,40
2018-04-22T13:31:06.963Z,40
2018-04-22T13:32:06.583Z,40
2018-04-22T13:33:06.560Z,40
2018-04-22T13:34:06.941Z,38
2018-04-22T13:35:06.775Z,38
2018-04-22T13:36:07.036Z,38
2018-04-22T13:37:07.064Z,40
2018-04-22T13:38:07.112Z,40
2018-04-22T13:39:06.838Z,40
2018-04-22T13:40:08.116Z,40
2018-04-22T13:41:06.809Z,40
2018-04-22T13:42:07.006Z,42
2018-04-22T13:43:06.830Z,42
2018-04-22T13:44:07.119Z,42
2018-04-22T13:45:07.014Z,41
2018-04-22T13:46:07.133Z,41
2018-04-22T13:47:06.752Z,42
2018-04-22T13:48:07.094Z,42
2018-04-22T13:49:06.816Z,42
2018-04-22T13:50:06.990Z,42
2018-04-22T13:51:07.099Z,42
2018-04-22T13:52:06.676Z,41
2018-04-22T13:53:06.608Z,41
2018-04-22T13:54:06.616Z,41
2018-04-22T13:55:07.048Z,39
2018-04-22T13:56:06.820Z,39
2018-04-22T13:57:07.086Z,39
2018-04-22T13:58:06.829Z,39
2018-04-22T13:59:06.801Z,39
2018-04-22T14:00:06.687Z,40
2018-04-22T14:01:07.090Z,40
2018-04-22T14:02:07.093Z,39
2018-04-22T14:03:07.089Z,39
2018-04-22T14:04:06.662Z,39
2018-04-22T14:05:06.624Z,42
2018-04-22T14:06:06.655Z,42
2018-04-22T14:07:07.117Z,42
2018-04-22T14:08:07.025Z,43
2018-04-22T14:09:06.583Z,43
2018-04-22T14:10:07.075Z,43
2018-04-22T14:11:07.042Z,43
2018-04-22T14:12:06.804Z,43
2018-04-22T14:13:06.799Z,41
2018-04-22T14:14:07.071Z,41
2018-04-22T14:15:07.077Z,39